createdAt,value
2018-04-30T00:00:37.562Z,19.41
2018-04-30T00:03:06.851Z,19.42
2018-04-30T00:05:36.515Z,19.44
2018-04-30T00:08:06.149Z,19.47
2018-04-30T00:10:35.781Z,19.50
2018-04-30T00:13:05.464Z,19.57
2018-04-30T00:15:35.100Z,19.64
2018-04-30T00:18:04.740Z,19.68
2018-04-30T00:20:34.420Z,19.73
2018-04-30T00:23:04.042Z,19.77
2018-04-30T00:37:39.723Z,19.79
2018-04-30T00:40:09.399Z,19.76
2018-04-30T00:42:44.425Z,19.75
2018-04-30T00:45:15.909Z,19.72
2018-04-30T00:47:48.872Z,19.66
2018-04-30T00:50:22.156Z,19.62
2018-04-30T00:52:51.654Z,19.60
2018-04-30T00:55:21.310Z,19.60
2018-04-30T00:57:50.987Z,19.58
2018-04-30T01:00:20.640Z,19.57
2018-04-30T01:02:53.731Z,19.57
2018-04-30T01:05:23.398Z,19.61
2018-04-30T01:07:58.428Z,19.62
2018-04-30T01:10:28.110Z,19.66
2018-04-30T01:13:03.140Z,19.64
2018-04-30T01:15:32.782Z,19.58
2018-04-30T01:18:03.793Z,19.46
2018-04-30T01:20:33.492Z,19.36
2018-04-30T01:23:07.034Z,19.30
2018-04-30T01:25:36.735Z,19.23
2018-04-30T01:28:06.497Z,19.14
2018-04-30T01:30:36.194Z,19.08
2018-04-30T01:33:05.854Z,19.02
2018-04-30T01:35:38.986Z,18.94
2018-04-30T01:38:14.212Z,18.89
2018-04-30T01:40:45.528Z,18.85
2018-04-30T01:43:20.954Z,18.88
2018-04-30T01:45:50.590Z,18.90
2018-04-30T01:48:20.029Z,18.92
2018-04-30T01:50:50.036Z,18.94
2018-04-30T01:53:19.679Z,18.94
2018-04-30T01:55:54.701Z,18.96
2018-04-30T01:58:24.393Z,19.00
2018-04-30T02:00:57.218Z,19.03
2018-04-30T02:03:30.039Z,19.04
2018-04-30T02:06:03.162Z,19.03
2018-04-30T02:08:32.588Z,19.07
2018-04-30T02:11:02.282Z,19.06
2018-04-30T02:13:31.713Z,19.06
2018-04-30T02:16:01.410Z,19.07
2018-04-30T02:18:34.355Z,19.03
2018-04-30T02:21:04.043Z,19.00
2018-04-30T02:23:37.388Z,18.92
2018-04-30T02:26:12.883Z,18.88
2018-04-30T02:28:44.216Z,18.80
2018-04-30T02:34:00.043Z,18.68
2018-04-30T02:36:29.729Z,18.71
2018-04-30T02:38:59.400Z,18.72
2018-04-30T02:48:55.052Z,18.60
2018-04-30T02:51:24.736Z,18.58
2018-04-30T02:53:55.289Z,18.56
2018-04-30T02:56:30.521Z,18.55
2018-04-30T02:59:02.004Z,18.53
2018-04-30T03:01:31.680Z,18.55
2018-04-30T03:04:01.366Z,18.57
2018-04-30T03:06:30.467Z,18.51
2018-04-30T03:09:03.500Z,18.42
2018-04-30T03:11:36.868Z,18.36
2018-04-30T03:14:09.592Z,18.34
2018-04-30T03:16:42.935Z,18.33
2018-04-30T03:19:16.053Z,18.30
2018-04-30T03:21:45.760Z,18.21
2018-04-30T03:24:21.217Z,18.16
2018-04-30T03:26:54.727Z,18.18
2018-04-30T03:29:24.107Z,18.17
2018-04-30T03:31:53.757Z,18.25
2018-04-30T03:34:23.424Z,18.32
2018-04-30T03:36:53.135Z,18.35
2018-04-30T03:39:22.813Z,18.36
2018-04-30T03:41:52.503Z,18.40
2018-04-30T03:44:22.220Z,18.42
2018-04-30T03:46:51.901Z,18.45
2018-04-30T03:49:21.585Z,18.45
2018-04-30T03:51:56.368Z,18.49
2018-04-30T03:54:29.491Z,18.56
2018-04-30T03:56:59.165Z,18.62
2018-04-30T03:59:28.509Z,18.73
2018-04-30T04:02:13.198Z,18.89
2018-04-30T04:19:48.067Z,19.55
2018-04-30T04:22:17.754Z,19.63
2018-04-30T04:24:51.027Z,19.69
2018-04-30T04:27:20.709Z,19.75
2018-04-30T04:42:21.866Z,19.94
2018-04-30T04:44:51.543Z,20.03
2018-04-30T04:47:21.290Z,20.09
2018-04-30T04:49:54.645Z,20.18
2018-04-30T04:52:24.345Z,20.28
2018-04-30T04:54:55.610Z,20.41
2018-04-30T04:57:25.321Z,20.57
2018-04-30T04:59:58.515Z,20.72
2018-04-30T05:02:31.598Z,20.87
2018-04-30T05:05:01.492Z,21.09
2018-04-30T05:07:34.323Z,21.32
2018-04-30T05:10:03.756Z,21.63
2018-04-30T05:12:35.577Z,21.99
2018-04-30T05:15:05.192Z,22.54
2018-04-30T05:17:34.558Z,23.24
2018-04-30T05:20:04.020Z,23.85
2018-04-30T05:22:35.589Z,24.49
2018-04-30T05:25:05.283Z,24.73
2018-04-30T05:27:38.358Z,25.12
2018-04-30T05:30:11.151Z,25.34
2018-04-30T05:32:44.077Z,25.54
2018-04-30T05:35:13.775Z,25.83
2018-04-30T05:37:46.785Z,26.05
2018-04-30T05:40:19.687Z,26.20
2018-04-30T05:42:49.341Z,26.52
2018-04-30T05:45:18.991Z,26.86
2018-04-30T05:47:49.267Z,27.03
2018-04-30T05:50:19.607Z,27.13
2018-04-30T05:52:49.871Z,27.28
2018-04-30T05:55:19.593Z,27.68
2018-04-30T05:57:50.048Z,27.83
2018-04-30T06:00:20.342Z,27.23
2018-04-30T06:02:55.689Z,27.24
2018-04-30T06:05:27.092Z,27.83
2018-04-30T06:08:03.218Z,28.12
2018-04-30T06:10:40.060Z,28.01
2018-04-30T06:13:10.299Z,28.12
2018-04-30T06:15:40.536Z,28.25
2018-04-30T06:18:10.778Z,28.68
2018-04-30T06:20:41.167Z,29.52
2018-04-30T06:23:14.558Z,29.55
2018-04-30T06:25:44.810Z,28.80
2018-04-30T06:28:15.053Z,28.39
2018-04-30T06:30:44.437Z,28.46
2018-04-30T06:33:14.076Z,28.71
2018-04-30T06:35:43.841Z,29.05
2018-04-30T06:38:13.446Z,28.79
2018-04-30T06:40:42.833Z,29.14
2018-04-30T06:43:13.404Z,29.38
2018-04-30T06:45:42.776Z,29.10
2018-04-30T06:48:13.859Z,29.10
2018-04-30T06:50:47.623Z,29.32
2018-04-30T06:56:18.704Z,30.51
2018-04-30T07:18:20.114Z,32.71
2018-04-30T07:20:50.039Z,32.47
2018-04-30T07:26:08.738Z,31.80
2018-04-30T07:28:38.938Z,31.69
2018-04-30T07:31:08.882Z,31.71
2018-04-30T07:33:38.864Z,31.78
2018-04-30T07:36:09.085Z,32.42
2018-04-30T07:38:39.524Z,32.98
2018-04-30T07:41:09.936Z,33.46
2018-04-30T07:43:39.873Z,33.13
2018-04-30T07:46:09.855Z,33.11
2018-04-30T07:48:40.071Z,32.82
2018-04-30T07:51:10.369Z,33.08
2018-04-30T07:53:40.313Z,32.98
2018-04-30T07:56:10.248Z,32.98
2018-04-30T07:58:40.526Z,32.61
2018-04-30T08:01:10.747Z,32.36
2018-04-30T08:03:40.722Z,32.58
2018-04-30T08:06:10.663Z,32.52
2018-04-30T08:08:40.608Z,31.89
2018-04-30T08:11:10.851Z,31.65
2018-04-30T08:13:41.138Z,32.02
2018-04-30T08:16:11.080Z,31.98
2018-04-30T08:18:41.032Z,31.91
2018-04-30T08:21:11.016Z,31.91
2018-04-30T08:26:20.286Z,33.08
2018-04-30T08:28:50.536Z,33.06
2018-04-30T08:31:20.787Z,32.77
2018-04-30T08:33:51.042Z,32.64
2018-04-30T08:36:20.965Z,32.42
2018-04-30T08:38:50.911Z,32.77
2018-04-30T08:41:21.150Z,33.16
2018-04-30T08:43:51.108Z,33.18
2018-04-30T08:46:20.748Z,33.67
2018-04-30T08:48:50.712Z,33.57
2018-04-30T08:51:20.953Z,33.76
2018-04-30T08:53:50.904Z,33.80
2018-04-30T08:56:20.866Z,33.88
2018-04-30T08:58:51.444Z,33.31
2018-04-30T09:01:21.698Z,32.53
2018-04-30T09:03:51.628Z,31.99
2018-04-30T09:06:21.575Z,31.58
2018-04-30T09:08:51.537Z,31.32
2018-04-30T09:11:21.506Z,30.83
2018-04-30T09:13:51.566Z,30.30
2018-04-30T09:16:21.553Z,30.16
2018-04-30T09:18:51.476Z,30.17
2018-04-30T09:21:21.476Z,30.16
2018-04-30T09:23:51.750Z,30.33
2018-04-30T09:26:22.160Z,30.27
2018-04-30T09:28:52.235Z,29.98
2018-04-30T09:31:22.458Z,29.89
2018-04-30T09:33:52.407Z,29.96
2018-04-30T09:36:22.640Z,29.81
2018-04-30T09:38:52.592Z,29.83
2018-04-30T09:41:22.557Z,29.90
2018-04-30T09:43:52.778Z,29.99
2018-04-30T09:46:22.698Z,30.07
2018-04-30T09:48:52.642Z,30.08
2018-04-30T09:51:22.640Z,30.11
2018-04-30T09:53:52.848Z,30.17
2018-04-30T09:56:22.823Z,30.22
2018-04-30T09:58:52.767Z,30.08
2018-04-30T10:01:22.740Z,29.93
2018-04-30T10:03:52.673Z,29.86
2018-04-30T10:06:22.936Z,30.00
2018-04-30T10:08:52.849Z,29.96
2018-04-30T10:11:22.802Z,29.88
2018-04-30T10:13:52.725Z,29.79
2018-04-30T10:16:23.036Z,29.99
2018-04-30T10:18:53.000Z,30.25
2018-04-30T10:21:23.212Z,30.36
2018-04-30T10:23:53.213Z,30.40
2018-04-30T10:26:23.388Z,30.56
2018-04-30T10:28:53.588Z,30.53
2018-04-30T10:31:23.539Z,30.31
2018-04-30T10:33:53.771Z,30.28
2018-04-30T10:36:23.982Z,30.33
2018-04-30T10:38:53.700Z,30.21
2018-04-30T10:41:23.710Z,30.07
2018-04-30T10:43:53.910Z,29.87
2018-04-30T10:46:23.860Z,29.87
2018-04-30T10:48:53.834Z,29.95
2018-04-30T10:51:23.766Z,29.84
2018-04-30T10:53:53.777Z,29.74
2018-04-30T10:56:24.030Z,29.76
2018-04-30T10:58:53.960Z,29.67
2018-04-30T11:01:23.893Z,29.47
2018-04-30T11:03:54.136Z,29.37
2018-04-30T11:06:24.054Z,29.30
2018-04-30T11:08:54.016Z,29.17
2018-04-30T11:11:23.996Z,28.99
2018-04-30T11:13:53.922Z,29.13
2018-04-30T11:16:23.870Z,29.32
2018-04-30T11:18:53.839Z,29.41
2018-04-30T11:21:23.763Z,29.50
2018-04-30T11:23:53.716Z,29.63
2018-04-30T11:26:23.695Z,29.72
2018-04-30T11:28:53.636Z,29.73
2018-04-30T11:31:23.592Z,29.73
2018-04-30T11:33:53.613Z,29.61
2018-04-30T11:36:23.852Z,29.53
2018-04-30T11:38:54.020Z,29.42
2018-04-30T11:41:24.003Z,29.38
2018-04-30T11:43:53.969Z,29.47
2018-04-30T11:46:23.949Z,29.49
2018-04-30T11:48:53.713Z,29.42
2018-04-30T11:51:23.885Z,29.35
2018-04-30T11:53:53.852Z,29.34
2018-04-30T11:56:23.837Z,29.17
2018-04-30T11:58:53.794Z,28.99
2018-04-30T12:01:23.964Z,29.04
2018-04-30T12:03:53.952Z,29.14
2018-04-30T12:06:23.878Z,29.14
2018-04-30T12:08:53.843Z,29.09
2018-04-30T12:11:24.319Z,29.16
2018-04-30T12:13:54.263Z,29.22
2018-04-30T12:16:24.246Z,29.30
2018-04-30T12:18:54.229Z,29.23
2018-04-30T12:21:24.446Z,29.15
2018-04-30T12:23:54.408Z,29.06
2018-04-30T12:26:24.040Z,29.05
2018-04-30T12:28:54.006Z,29.06
2018-04-30T12:31:23.915Z,29.08
2018-04-30T12:33:54.077Z,29.13
2018-04-30T12:36:23.489Z,29.20
2018-04-30T12:38:53.436Z,29.29
2018-04-30T12:41:23.402Z,29.43
2018-04-30T12:43:53.399Z,29.47
2018-04-30T12:46:23.056Z,29.52
2018-04-30T12:48:53.201Z,29.39
2018-04-30T12:51:23.176Z,29.31
2018-04-30T12:53:53.111Z,29.29
2018-04-30T12:56:23.286Z,29.33
2018-04-30T12:58:53.246Z,29.29
2018-04-30T13:01:23.487Z,29.26
2018-04-30T13:03:55.537Z,29.29
2018-04-30T13:06:25.592Z,29.39
2018-04-30T13:08:55.790Z,29.45
2018-04-30T13:11:25.735Z,29.62
2018-04-30T13:13:55.759Z,29.70
2018-04-30T13:16:26.025Z,29.68
2018-04-30T13:18:55.976Z,29.70
2018-04-30T13:21:25.933Z,29.61
2018-04-30T13:23:55.981Z,29.64
2018-04-30T13:26:25.914Z,29.70
2018-04-30T13:28:55.882Z,29.66
2018-04-30T13:31:25.888Z,29.62
2018-04-30T13:33:55.847Z,29.53
2018-04-30T13:36:25.463Z,29.34
2018-04-30T13:38:56.100Z,29.02
2018-04-30T13:41:26.296Z,28.69
2018-04-30T13:43:55.654Z,28.61
2018-04-30T13:46:25.735Z,28.68
2018-04-30T13:48:55.666Z,28.74
2018-04-30T13:51:25.898Z,28.75
2018-04-30T13:53:55.874Z,28.64
2018-04-30T13:56:25.973Z,28.53
2018-04-30T13:58:55.939Z,28.39
2018-04-30T14:01:26.206Z,28.28
2018-04-30T14:03:56.134Z,28.20
2018-04-30T14:06:26.122Z,28.30
2018-04-30T14:08:56.269Z,28.50
2018-04-30T14:11:26.224Z,28.74
2018-04-30T14:13:56.172Z,29.02
2018-04-30T14:16:26.134Z,29.24
2018-04-30T14:18:57.072Z,29.43
2018-04-30T14:21:27.133Z,29.57
2018-04-30T14:23:57.318Z,29.70
2018-04-30T14:26:27.274Z,29.79
2018-04-30T14:28:57.240Z,29.83
2018-04-30T14:31:27.167Z,29.83
2018-04-30T14:33:57.108Z,29.80
2018-04-30T14:36:27.104Z,29.71
2018-04-30T14:38:57.022Z,29.58
2018-04-30T14:41:27.067Z,29.41
2018-04-30T14:43:57.004Z,29.01
2018-04-30T14:46:26.962Z,28.72
2018-04-30T14:48:56.918Z,28.42
2018-04-30T14:51:26.910Z,28.17
2018-04-30T14:53:57.034Z,27.87
2018-04-30T14:56:26.954Z,27.60
2018-04-30T14:58:56.879Z,27.41
2018-04-30T15:01:26.837Z,27.32
2018-04-30T15:03:56.436Z,27.12
2018-04-30T15:06:26.371Z,26.94
2018-04-30T15:08:56.324Z,26.90
2018-04-30T15:11:26.279Z,26.91
2018-04-30T15:13:56.265Z,27.00
2018-04-30T15:16:26.201Z,27.05
2018-04-30T15:18:56.168Z,27.07
2018-04-30T15:21:26.129Z,27.03
2018-04-30T15:23:56.065Z,26.95
2018-04-30T15:26:25.986Z,26.82
2018-04-30T15:28:55.963Z,26.78
2018-04-30T15:31:25.875Z,26.68
2018-04-30T15:33:55.840Z,26.63
2018-04-30T15:36:25.780Z,26.51
2018-04-30T15:38:55.753Z,26.29
2018-04-30T15:41:25.955Z,26.10
2018-04-30T15:43:55.912Z,25.85
2018-04-30T15:46:25.907Z,25.64
2018-04-30T15:48:55.244Z,25.51
2018-04-30T15:51:25.184Z,25.34
2018-04-30T15:53:55.156Z,25.20
2018-04-30T15:56:24.511Z,25.09
2018-04-30T15:58:53.842Z,24.98
2018-04-30T16:01:23.308Z,24.83
2018-04-30T16:03:52.796Z,24.68
2018-04-30T16:06:22.162Z,24.54
2018-04-30T16:08:51.543Z,24.40
2018-04-30T16:11:20.888Z,24.20
2018-04-30T16:13:50.242Z,24.00
2018-04-30T16:16:19.684Z,23.92
2018-04-30T16:18:49.217Z,23.83
2018-04-30T16:21:18.582Z,23.74
2018-04-30T16:23:47.967Z,23.68
2018-04-30T16:26:17.331Z,23.58
2018-04-30T16:28:46.675Z,23.49
2018-04-30T16:31:16.088Z,23.35
2018-04-30T16:33:45.195Z,23.17
2018-04-30T16:36:14.599Z,23.06
2018-04-30T16:38:43.992Z,23.04
2018-04-30T16:41:13.339Z,23.01
2018-04-30T16:43:42.695Z,22.99
2018-04-30T16:46:12.085Z,22.88
2018-04-30T16:48:41.424Z,22.74
2018-04-30T16:51:10.884Z,22.56
2018-04-30T16:53:40.272Z,22.41
2018-04-30T16:56:09.606Z,22.37
2018-04-30T16:58:39.022Z,22.34
2018-04-30T17:01:08.587Z,22.34
2018-04-30T17:03:37.931Z,22.30
2018-04-30T17:06:07.273Z,22.25
2018-04-30T17:08:36.665Z,22.20
2018-04-30T17:11:06.012Z,22.17
2018-04-30T17:13:35.359Z,22.19
2018-04-30T17:16:05.015Z,22.31
2018-04-30T17:18:34.346Z,22.29
2018-04-30T17:21:03.683Z,22.32
2018-04-30T17:23:33.076Z,22.32
2018-04-30T17:26:02.429Z,22.30
2018-04-30T17:28:31.788Z,22.12
2018-04-30T17:31:01.167Z,21.95
2018-04-30T17:33:30.510Z,21.72
2018-04-30T17:35:59.851Z,21.52
2018-04-30T17:38:29.247Z,21.36
2018-04-30T17:40:58.644Z,21.22
2018-04-30T17:43:28.147Z,21.11
2018-04-30T17:45:57.523Z,21.00
2018-04-30T17:48:26.859Z,20.92
2018-04-30T17:50:56.232Z,20.85
2018-04-30T17:53:25.647Z,20.76
2018-04-30T17:55:55.194Z,20.73
2018-04-30T17:58:24.531Z,20.68
2018-04-30T18:00:53.987Z,20.78
2018-04-30T18:03:23.339Z,20.97
2018-04-30T18:05:52.685Z,20.98
2018-04-30T18:08:22.082Z,20.95
2018-04-30T18:10:51.440Z,20.94
2018-04-30T18:13:20.454Z,20.83
2018-04-30T18:15:49.857Z,20.82
2018-04-30T18:18:19.215Z,20.81
2018-04-30T18:20:48.559Z,20.64
2018-04-30T18:23:17.956Z,20.55
2018-04-30T18:25:47.310Z,20.52
2018-04-30T18:28:16.656Z,20.39
2018-04-30T18:30:46.107Z,20.30
2018-04-30T18:33:15.513Z,20.20
2018-04-30T18:35:45.020Z,20.12
2018-04-30T18:40:42.568Z,20.02
2018-04-30T18:43:11.914Z,19.82
2018-04-30T18:45:41.582Z,19.65
2018-04-30T18:48:10.926Z,19.49
2018-04-30T18:50:40.389Z,19.37
2018-04-30T18:53:09.780Z,19.28
2018-04-30T18:55:39.444Z,19.16
2018-04-30T18:58:08.790Z,19.04
2018-04-30T19:00:38.218Z,18.93
2018-04-30T19:03:07.573Z,18.96
2018-04-30T19:05:36.924Z,18.82
2018-04-30T19:08:06.320Z,18.75
2018-04-30T19:10:35.667Z,18.65
2018-04-30T19:13:05.015Z,18.51
2018-04-30T19:15:34.629Z,18.44
2018-04-30T19:18:03.977Z,18.38
2018-04-30T19:20:33.335Z,18.38
2018-04-30T19:23:02.743Z,18.31
2018-04-30T19:25:32.378Z,18.18
2018-04-30T19:28:01.733Z,18.08
2018-04-30T19:30:31.132Z,17.96
2018-04-30T19:33:00.541Z,17.89
2018-04-30T19:35:29.904Z,18.02
2018-04-30T19:37:59.295Z,17.96
2018-04-30T19:40:28.660Z,17.80
2018-04-30T19:42:58.017Z,17.74
2018-04-30T19:45:27.759Z,17.64
2018-04-30T19:47:57.295Z,17.58
2018-04-30T19:50:28.170Z,17.72
2018-04-30T19:52:57.581Z,17.85
2018-04-30T19:55:27.140Z,17.86
2018-04-30T19:57:56.537Z,17.82
2018-04-30T20:00:25.888Z,17.80
2018-04-30T20:02:55.250Z,17.80
2018-04-30T20:05:24.655Z,17.86
2018-04-30T20:07:54.012Z,17.98
2018-04-30T20:10:23.370Z,17.97
2018-04-30T20:12:52.767Z,17.78
2018-04-30T20:15:22.156Z,17.66
2018-04-30T20:17:51.510Z,17.64
2018-04-30T20:20:21.001Z,17.64
2018-04-30T20:22:50.477Z,17.64
2018-04-30T20:25:19.838Z,17.66
2018-04-30T20:27:49.267Z,17.70
2018-04-30T20:30:18.610Z,17.78
2018-04-30T20:32:47.951Z,17.88
2018-04-30T20:35:17.323Z,17.91
2018-04-30T20:37:46.676Z,18.00
2018-04-30T20:40:16.023Z,18.08
2018-04-30T20:42:45.203Z,18.11
2018-04-30T20:45:14.560Z,18.18
2018-04-30T20:47:43.900Z,18.18
2018-04-30T20:50:13.287Z,18.11
2018-04-30T20:52:42.637Z,17.98
2018-04-30T20:55:11.790Z,17.80
2018-04-30T20:57:41.167Z,17.67
2018-04-30T21:00:10.181Z,17.46
2018-04-30T21:02:39.727Z,17.27
2018-04-30T21:05:09.124Z,17.17
2018-04-30T21:07:38.474Z,17.08
2018-04-30T21:10:08.096Z,17.03
2018-04-30T21:12:37.482Z,17.06
2018-04-30T21:15:06.263Z,17.28
2018-04-30T21:17:35.502Z,17.44
2018-04-30T21:20:04.679Z,17.50
2018-04-30T21:22:34.024Z,17.49
2018-04-30T21:25:03.378Z,17.51
2018-04-30T21:27:32.765Z,17.46
2018-04-30T21:30:03.349Z,17.51
2018-04-30T21:32:32.707Z,17.57
2018-04-30T21:35:02.187Z,17.52
2018-04-30T21:37:31.520Z,17.49
2018-04-30T21:40:01.211Z,17.44
2018-04-30T21:42:30.737Z,17.37
2018-04-30T21:45:00.098Z,17.30
2018-04-30T21:47:29.524Z,17.28
2018-04-30T21:49:59.165Z,17.11
2018-04-30T21:52:28.782Z,17.02
2018-04-30T21:54:58.392Z,16.86
2018-04-30T21:57:27.787Z,16.85
2018-04-30T21:59:57.145Z,16.74
2018-04-30T22:02:26.813Z,16.80
2018-04-30T22:04:56.536Z,16.91
2018-04-30T22:07:26.156Z,16.96
2018-04-30T22:09:55.786Z,17.01
2018-04-30T22:12:25.199Z,17.03
2018-04-30T22:14:54.486Z,17.07
2018-04-30T22:17:24.130Z,17.01
2018-04-30T22:19:53.507Z,16.91
2018-04-30T22:22:23.124Z,16.95
2018-04-30T22:24:52.769Z,17.05
2018-04-30T22:27:22.431Z,16.97
2018-04-30T22:29:52.047Z,16.98
2018-04-30T22:32:21.715Z,16.96
2018-04-30T22:34:51.384Z,16.92
2018-04-30T22:37:20.731Z,16.88
2018-04-30T22:39:50.381Z,16.99
2018-04-30T22:42:20.048Z,17.02
2018-04-30T22:44:49.679Z,17.06
2018-04-30T22:47:19.424Z,17.04
2018-04-30T22:49:49.147Z,16.98
2018-04-30T22:52:18.482Z,16.92
2018-04-30T22:54:48.100Z,16.78
2018-04-30T22:57:17.484Z,16.65
2018-04-30T22:59:47.099Z,16.60
2018-04-30T23:02:16.734Z,16.55
2018-04-30T23:04:46.394Z,16.52
2018-04-30T23:07:16.015Z,16.61
2018-04-30T23:09:45.659Z,16.76
2018-04-30T23:12:15.330Z,16.90
2018-04-30T23:14:44.960Z,16.92
2018-04-30T23:17:14.604Z,16.95
2018-04-30T23:19:44.279Z,17.09
2018-04-30T23:22:15.812Z,17.16
2018-04-30T23:24:45.193Z,17.14
2018-04-30T23:27:14.810Z,17.14
2018-04-30T23:29:44.487Z,17.15
2018-04-30T23:32:14.106Z,17.11
2018-04-30T23:34:43.724Z,17.00
2018-04-30T23:37:13.383Z,16.90
2018-04-30T23:39:43.031Z,16.87
2018-04-30T23:42:12.662Z,16.86
2018-04-30T23:44:42.320Z,16.75
2018-04-30T23:47:11.935Z,16.64
2018-04-30T23:49:41.668Z,16.53
2018-04-30T23:52:11.325Z,16.39
2018-04-30T23:54:40.995Z,16.23
2018-04-30T23:57:10.630Z,16.09
2018-04-30T23:59:40.295Z,16.09
